Time;durP1;ratioP1;P1;durP2;ratioP2;P2;SDS_P1;SDS_P2;PMS_P1;PMS_P2;Temp;Humidity;BMP_temperature;BMP_pressure;BME280_temperature;BME280_humidity;BME280_pressure;Samples;Min_cycle;Max_cycle;Signal;HPM_P1;HPM_P2
2021/08/09 00:02:10;;;;;;;4.67;1.47;;;16.60;99.90;;;;;;5018712;28;25443;-69
2021/08/09 00:04:39;;;;;;;3.00;2.17;;;16.50;99.90;;;;;;5006426;28;20487;-74
2021/08/09 00:07:07;;;;;;;2.20;1.27;;;16.60;99.90;;;;;;5014078;28;20460;-72
2021/08/09 00:09:34;;;;;;;2.17;1.90;;;16.60;99.90;;;;;;5011123;28;20511;-70
2021/08/09 00:12:03;;;;;;;2.23;1.60;;;16.60;99.90;;;;;;5016560;28;20488;-72
2021/08/09 00:14:30;;;;;;;3.17;1.60;;;16.60;99.90;;;;;;5018108;28;25660;-70
2021/08/09 00:16:57;;;;;;;3.03;1.80;;;16.60;99.90;;;;;;5016069;28;21015;-70
2021/08/09 00:19:25;;;;;;;2.20;1.67;;;16.70;99.90;;;;;;5020715;28;20482;-69
2021/08/09 00:21:52;;;;;;;2.27;1.43;;;16.60;99.90;;;;;;5028714;28;20532;-71
2021/08/09 00:24:19;;;;;;;3.37;1.70;;;16.50;99.90;;;;;;5021893;28;20484;-76
2021/08/09 00:26:46;;;;;;;2.30;1.20;;;16.60;99.90;;;;;;5021009;28;20481;-69
2021/08/09 00:29:13;;;;;;;2.60;1.73;;;16.50;99.90;;;;;;5015324;28;20587;-69
2021/08/09 00:31:40;;;;;;;1.97;1.53;;;16.60;99.90;;;;;;5011932;28;20579;-68
2021/08/09 00:34:07;;;;;;;2.77;1.67;;;16.70;99.90;;;;;;5015226;28;20540;-73
2021/08/09 00:36:49;;;;;;;1.93;1.70;;;16.70;99.90;;;;;;5018409;28;20472;-69
2021/08/09 00:39:16;;;;;;;1.97;1.50;;;16.70;99.90;;;;;;5013875;28;20507;-73
2021/08/09 00:41:43;;;;;;;4.70;2.17;;;16.80;99.90;;;;;;5014866;28;20459;-69
2021/08/09 00:44:10;;;;;;;3.00;2.60;;;16.80;99.90;;;;;;5013072;28;20523;-68
2021/08/09 00:46:39;;;;;;;4.40;2.00;;;16.80;99.90;;;;;;5031092;28;20449;-68
2021/08/09 00:49:06;;;;;;;2.23;1.30;;;16.80;99.90;;;;;;5012893;28;20863;-73
2021/08/09 00:51:33;;;;;;;6.20;3.67;;;16.80;99.90;;;;;;5018404;28;20578;-69
2021/08/09 00:54:01;;;;;;;2.80;1.23;;;16.80;99.90;;;;;;5010892;28;20465;-68
2021/08/09 00:56:28;;;;;;;2.23;2.03;;;16.80;99.90;;;;;;5016578;28;20491;-69
2021/08/09 00:58:56;;;;;;;2.43;1.80;;;16.80;99.90;;;;;;5016058;28;20571;-70
2021/08/09 01:01:23;;;;;;;1.47;1.33;;;16.90;99.90;;;;;;5017096;28;20444;-69
2021/08/09 01:03:50;;;;;;;3.27;1.67;;;16.60;99.90;;;;;;5005819;28;21492;-73
2021/08/09 01:06:17;;;;;;;8.37;1.90;;;16.60;99.90;;;;;;5018952;28;20534;-69
2021/08/09 01:09:01;;;;;;;3.20;1.50;;;16.60;99.90;;;;;;5013339;28;20504;-67
2021/08/09 01:11:41;;;;;;;1.73;1.60;;;16.50;99.90;;;;;;5012088;28;20507;-69
2021/08/09 01:14:18;;;;;;;2.10;1.67;;;16.50;99.90;;;;;;5018509;28;20459;-69
2021/08/09 01:16:46;;;;;;;1.50;1.40;;;16.50;99.90;;;;;;5013414;28;21036;-73
2021/08/09 01:19:25;;;;;;;2.23;2.03;;;16.40;99.90;;;;;;5018552;28;20941;-68
2021/08/09 01:21:56;;;;;;;2.50;1.80;;;16.40;99.90;;;;;;5013062;28;20445;-74
2021/08/09 01:24:30;;;;;;;1.93;1.73;;;16.50;99.90;;;;;;5011341;28;20539;-71
2021/08/09 01:27:04;;;;;;;2.57;1.70;;;16.50;99.90;;;;;;5035156;28;20448;-71
2021/08/09 01:29:43;;;;;;;4.60;1.80;;;16.40;99.90;;;;;;5009648;28;20516;-72
2021/08/09 01:32:12;;;;;;;4.57;2.30;;;16.40;99.90;;;;;;5019911;28;20522;-71
2021/08/09 01:34:39;;;;;;;2.57;1.60;;;16.40;99.90;;;;;;5016964;28;20473;-69
2021/08/09 01:37:08;;;;;;;2.37;1.87;;;16.40;99.90;;;;;;5027925;22;20628;-74
2021/08/09 01:39:35;;;;;;;7.93;2.73;;;16.50;99.90;;;;;;4994783;28;20458;-72
2021/08/09 01:42:05;;;;;;;3.73;1.40;;;16.20;99.90;;;;;;4999088;28;20493;-71
2021/08/09 01:44:34;;;;;;;2.17;1.80;;;16.20;99.90;;;;;;4999791;28;20560;-70
2021/08/09 01:47:02;;;;;;;2.40;1.97;;;16.30;99.90;;;;;;4998117;28;20473;-73
2021/08/09 01:49:30;;;;;;;5.90;1.70;;;16.30;99.90;;;;;;4988947;28;20472;-70
2021/08/09 01:51:58;;;;;;;4.73;2.20;;;16.30;99.90;;;;;;4998731;28;20572;-71
2021/08/09 01:54:26;;;;;;;2.20;2.00;;;16.30;99.90;;;;;;4995776;28;20516;-70
2021/08/09 01:56:53;;;;;;;2.00;1.57;;;16.30;99.90;;;;;;4996417;28;20504;-75
2021/08/09 01:59:21;;;;;;;3.20;1.73;;;16.20;99.90;;;;;;5003614;28;20540;-71
2021/08/09 02:01:49;;;;;;;4.40;1.90;;;16.20;99.90;;;;;;4993475;28;21020;-70
2021/08/09 02:04:16;;;;;;;4.23;1.90;;;16.10;99.90;;;;;;4997699;28;20493;-69
2021/08/09 02:06:44;;;;;;;2.57;1.93;;;16.10;99.90;;;;;;4993378;28;20513;-72
2021/08/09 02:09:11;;;;;;;2.10;1.83;;;16.10;99.90;;;;;;4998414;28;20457;-69
2021/08/09 02:11:45;;;;;;;3.60;1.77;;;16.10;99.90;;;;;;4998331;28;20576;-73
2021/08/09 02:14:16;;;;;;;2.90;2.60;;;16.10;99.90;;;;;;5001237;28;21206;-71
2021/08/09 02:16:47;;;;;;;2.03;1.60;;;16.00;99.90;;;;;;4998015;28;20571;-70
2021/08/09 02:19:23;;;;;;;2.23;1.43;;;16.00;99.90;;;;;;4993052;28;20458;-72
2021/08/09 02:21:56;;;;;;;2.00;1.60;;;15.90;99.90;;;;;;4996795;28;20442;-70
2021/08/09 02:24:28;;;;;;;2.80;1.57;;;16.00;99.90;;;;;;4998246;28;20482;-71
2021/08/09 02:26:59;;;;;;;5.33;1.53;;;16.00;99.90;;;;;;5000453;28;20487;-70
2021/08/09 02:29:31;;;;;;;2.80;2.10;;;16.00;99.90;;;;;;5001634;28;20531;-70
2021/08/09 02:31:59;;;;;;;2.73;2.33;;;15.90;99.90;;;;;;5003682;28;20469;-71
2021/08/09 02:34:32;;;;;;;5.47;1.97;;;15.90;99.90;;;;;;5003068;28;20446;-71
2021/08/09 02:37:01;;;;;;;5.23;1.90;;;15.90;99.90;;;;;;4998493;28;20547;-72
2021/08/09 02:39:31;;;;;;;2.90;2.53;;;15.90;99.90;;;;;;4996887;28;20465;-69
2021/08/09 02:41:59;;;;;;;1.80;1.30;;;15.90;99.90;;;;;;4992184;28;20465;-74
2021/08/09 02:44:27;;;;;;;2.87;2.10;;;15.90;99.90;;;;;;4995582;28;20524;-70
2021/08/09 02:46:55;;;;;;;4.03;1.80;;;15.90;99.90;;;;;;4991030;28;20562;-78
2021/08/09 02:49:22;;;;;;;2.93;1.80;;;16.00;99.90;;;;;;4997722;28;20493;-71
2021/08/09 02:51:51;;;;;;;1.90;1.70;;;15.90;99.90;;;;;;4995359;28;20720;-70
2021/08/09 02:54:19;;;;;;;4.40;2.07;;;15.90;99.90;;;;;;4999185;28;20493;-70
2021/08/09 02:56:47;;;;;;;4.03;2.53;;;15.90;99.90;;;;;;4992298;28;20482;-69
2021/08/09 02:59:16;;;;;;;2.50;1.80;;;15.90;99.90;;;;;;4994119;28;20568;-70
2021/08/09 03:01:43;;;;;;;8.30;1.83;;;16.00;99.90;;;;;;4993433;28;20496;-70
2021/08/09 03:04:15;;;;;;;2.50;1.30;;;16.00;99.90;;;;;;4992283;28;20524;-72
2021/08/09 03:06:42;;;;;;;6.77;2.37;;;15.90;99.90;;;;;;4985688;28;20477;-68
2021/08/09 03:09:11;;;;;;;2.17;1.90;;;15.80;99.90;;;;;;4989055;28;20666;-72
2021/08/09 03:11:42;;;;;;;4.30;1.97;;;15.80;99.90;;;;;;4992417;28;20581;-71
2021/08/09 03:14:22;;;;;;;3.50;1.53;;;15.80;99.90;;;;;;4990675;28;20553;-70
2021/08/09 03:16:50;;;;;;;2.50;1.90;;;15.80;99.90;;;;;;4992245;28;20473;-71
2021/08/09 03:19:16;;;;;;;2.77;1.90;;;15.80;99.90;;;;;;4993510;28;20846;-70
2021/08/09 03:21:50;;;;;;;3.70;2.30;;;15.80;99.90;;;;;;4996583;28;26824;-72
2021/08/09 03:24:19;;;;;;;2.33;1.63;;;15.80;99.90;;;;;;4990642;28;20958;-70
2021/08/09 03:26:46;;;;;;;4.80;1.70;;;15.80;99.90;;;;;;4990675;28;20970;-69
2021/08/09 03:29:13;;;;;;;2.87;1.90;;;15.80;99.90;;;;;;5004585;28;20523;-68
2021/08/09 03:31:40;;;;;;;3.27;2.70;;;15.70;99.90;;;;;;5006100;28;20493;-69
2021/08/09 03:34:08;;;;;;;5.17;2.40;;;15.80;99.90;;;;;;4995182;28;20563;-71
2021/08/09 03:36:35;;;;;;;2.47;1.47;;;15.80;99.90;;;;;;5008873;28;20516;-70
2021/08/09 03:39:02;;;;;;;5.10;2.03;;;15.90;99.90;;;;;;5001302;28;20550;-70
2021/08/09 03:41:30;;;;;;;7.73;1.93;;;15.90;99.90;;;;;;5006371;28;20488;-67
2021/08/09 03:43:57;;;;;;;2.93;2.07;;;15.90;99.90;;;;;;5002225;28;20549;-71
2021/08/09 03:46:24;;;;;;;2.73;1.67;;;15.80;99.90;;;;;;5002679;28;20563;-70
2021/08/09 03:48:51;;;;;;;4.17;1.93;;;15.90;99.90;;;;;;5011991;28;20541;-70
2021/08/09 03:51:18;;;;;;;7.13;2.33;;;16.00;99.90;;;;;;5005248;28;20477;-71
2021/08/09 03:53:45;;;;;;;10.20;2.77;;;15.90;99.90;;;;;;5000377;28;20465;-69
2021/08/09 03:56:12;;;;;;;3.30;1.60;;;15.90;99.90;;;;;;4999170;28;20576;-70
2021/08/09 03:58:40;;;;;;;1.90;1.63;;;15.90;99.90;;;;;;5002008;28;20600;-69
2021/08/09 04:01:07;;;;;;;4.00;1.93;;;15.90;99.90;;;;;;5002651;28;20455;-69
2021/08/09 04:03:36;;;;;;;1.90;1.53;;;16.00;99.90;;;;;;4990680;28;20540;-68
2021/08/09 04:06:03;;;;;;;2.27;2.07;;;15.90;99.90;;;;;;4990253;28;20482;-68
2021/08/09 04:08:29;;;;;;;3.47;1.57;;;15.80;99.90;;;;;;5005089;28;20838;-70
2021/08/09 04:10:56;;;;;;;4.07;2.60;;;15.80;99.90;;;;;;5001659;28;20540;-70
2021/08/09 04:13:23;;;;;;;3.60;1.70;;;15.70;99.90;;;;;;4993813;28;20620;-73
2021/08/09 04:15:52;;;;;;;4.27;2.07;;;15.70;99.90;;;;;;4990376;28;20484;-70
2021/08/09 04:18:18;;;;;;;4.93;2.10;;;15.80;99.90;;;;;;4995707;28;20461;-69
2021/08/09 04:20:45;;;;;;;7.43;3.13;;;15.80;99.90;;;;;;5003567;28;20505;-73
2021/08/09 04:23:12;;;;;;;6.53;2.80;;;15.80;99.90;;;;;;5008052;28;20449;-71
2021/08/09 04:25:39;;;;;;;4.70;2.37;;;15.90;99.90;;;;;;5001542;28;20481;-69
2021/08/09 04:28:06;;;;;;;2.17;1.63;;;15.90;99.90;;;;;;4997789;28;20556;-70
2021/08/09 04:30:33;;;;;;;3.33;1.80;;;16.00;99.90;;;;;;4994593;28;20500;-71
2021/08/09 04:33:04;;;;;;;3.83;2.10;;;16.10;99.90;;;;;;4991051;28;20634;-71
2021/08/09 04:35:31;;;;;;;2.37;1.43;;;16.20;99.90;;;;;;4997870;28;20918;-70
2021/08/09 04:37:58;;;;;;;3.20;1.60;;;16.20;99.90;;;;;;4995875;28;20504;-69
2021/08/09 04:40:25;;;;;;;2.70;2.00;;;16.30;99.90;;;;;;5004617;28;20881;-69
2021/08/09 04:42:52;;;;;;;2.47;1.87;;;16.30;99.90;;;;;;5005600;28;20488;-69
2021/08/09 04:45:18;;;;;;;3.00;1.87;;;16.20;99.90;;;;;;4996790;28;21064;-74
2021/08/09 04:47:45;;;;;;;3.10;1.97;;;16.10;99.90;;;;;;5000294;28;20480;-70
2021/08/09 04:50:14;;;;;;;3.00;2.30;;;16.00;99.90;;;;;;4999426;28;22091;-69
2021/08/09 04:52:41;;;;;;;5.27;1.80;;;15.90;99.90;;;;;;5004523;28;20535;-73
2021/08/09 04:55:09;;;;;;;3.23;2.27;;;15.80;99.90;;;;;;5006418;28;20510;-69
2021/08/09 04:57:36;;;;;;;2.63;1.37;;;15.90;99.90;;;;;;5005822;28;21013;-70
2021/08/09 05:00:04;;;;;;;2.93;2.27;;;16.00;99.90;;;;;;5004913;28;20449;-71
2021/08/09 05:02:31;;;;;;;2.30;1.67;;;16.20;99.90;;;;;;5002694;28;20521;-73
2021/08/09 05:04:59;;;;;;;5.20;1.60;;;16.20;99.90;;;;;;5002287;28;20938;-69
2021/08/09 05:07:27;;;;;;;1.90;1.70;;;16.10;99.90;;;;;;5006646;28;20496;-69
2021/08/09 05:09:54;;;;;;;3.80;2.50;;;16.10;99.90;;;;;;5007670;28;20461;-69
2021/08/09 05:12:21;;;;;;;4.83;2.33;;;16.10;99.90;;;;;;5005658;28;20573;-69
2021/08/09 05:14:48;;;;;;;1.53;1.30;;;16.10;99.90;;;;;;5000514;28;20480;-74
2021/08/09 05:17:15;;;;;;;3.47;2.13;;;16.30;99.90;;;;;;4998683;28;21056;-69
2021/08/09 05:19:42;;;;;;;1.70;1.57;;;16.40;99.90;;;;;;5009956;28;20488;-74
2021/08/09 05:22:09;;;;;;;2.50;1.70;;;16.40;99.90;;;;;;5004007;28;20453;-69
2021/08/09 05:24:38;;;;;;;2.30;1.73;;;16.40;99.90;;;;;;5011935;28;20452;-72
2021/08/09 05:27:04;;;;;;;2.83;1.60;;;16.40;99.90;;;;;;4994385;28;20928;-70
2021/08/09 05:29:31;;;;;;;3.40;1.50;;;16.50;99.90;;;;;;4997575;28;20532;-71
2021/08/09 05:31:59;;;;;;;2.10;1.53;;;16.50;99.90;;;;;;5000337;28;20584;-69
2021/08/09 05:34:26;;;;;;;4.17;1.90;;;16.70;99.90;;;;;;5000402;28;20536;-68
2021/08/09 05:36:53;;;;;;;2.90;1.70;;;16.50;99.90;;;;;;4999469;28;20572;-70
2021/08/09 05:39:20;;;;;;;1.90;1.43;;;16.50;99.90;;;;;;5000564;28;20489;-70
2021/08/09 05:41:49;;;;;;;4.13;3.70;;;16.60;99.90;;;;;;4998401;28;21123;-70
2021/08/09 05:44:16;;;;;;;2.50;1.90;;;16.70;99.90;;;;;;4999851;28;20551;-68
2021/08/09 05:46:43;;;;;;;5.90;1.77;;;16.70;99.90;;;;;;5006487;28;20555;-70
2021/08/09 05:49:10;;;;;;;3.13;1.93;;;17.00;99.90;;;;;;4995315;28;20543;-69
2021/08/09 05:51:39;;;;;;;2.17;1.73;;;17.30;99.90;;;;;;4994627;28;20548;-69
2021/08/09 05:54:08;;;;;;;3.73;2.17;;;17.40;99.90;;;;;;4995486;28;20982;-70
2021/08/09 05:56:35;;;;;;;2.83;2.00;;;17.20;99.90;;;;;;5007580;28;20472;-72
2021/08/09 05:59:03;;;;;;;2.07;1.87;;;17.20;99.90;;;;;;5005081;28;20552;-75
2021/08/09 06:01:30;;;;;;;3.60;1.87;;;17.20;99.90;;;;;;5003689;28;20798;-71
2021/08/09 06:03:57;;;;;;;2.53;1.60;;;17.20;99.90;;;;;;5001008;28;20477;-70
2021/08/09 06:06:24;;;;;;;3.30;2.13;;;17.20;99.90;;;;;;4995484;28;20478;-71
2021/08/09 06:08:51;;;;;;;5.70;2.43;;;17.20;99.90;;;;;;4996233;28;20836;-75
2021/08/09 06:11:21;;;;;;;1.30;1.20;;;17.10;99.90;;;;;;5003293;28;20477;-74
2021/08/09 06:13:48;;;;;;;3.17;2.30;;;17.00;99.90;;;;;;5002550;28;20569;-71
2021/08/09 06:16:18;;;;;;;3.40;1.73;;;17.10;99.90;;;;;;5000868;28;20560;-78
2021/08/09 06:18:45;;;;;;;2.47;1.87;;;17.10;99.90;;;;;;5005859;28;20468;-74
2021/08/09 06:21:12;;;;;;;4.90;2.27;;;17.20;99.90;;;;;;5004947;28;20481;-70
2021/08/09 06:23:39;;;;;;;2.83;1.67;;;17.10;99.90;;;;;;5006903;28;20452;-75
2021/08/09 06:26:06;;;;;;;5.27;1.87;;;17.20;99.90;;;;;;5012235;28;20567;-70
2021/08/09 06:28:35;;;;;;;4.10;1.63;;;17.30;99.90;;;;;;5014225;28;20469;-71
2021/08/09 06:31:02;;;;;;;2.50;1.60;;;17.20;99.90;;;;;;5035108;28;20473;-72
2021/08/09 06:33:31;;;;;;;2.10;1.63;;;17.30;99.90;;;;;;5024196;28;20464;-73
2021/08/09 06:35:58;;;;;;;3.20;1.70;;;17.30;99.90;;;;;;5017819;28;20482;-70
2021/08/09 06:38:24;;;;;;;3.93;2.00;;;17.30;99.90;;;;;;5018471;28;20553;-72
2021/08/09 06:40:51;;;;;;;3.20;2.40;;;17.30;99.90;;;;;;5024449;28;20453;-70
2021/08/09 06:43:18;;;;;;;2.40;1.57;;;17.30;99.90;;;;;;5022824;28;20445;-74
2021/08/09 06:45:45;;;;;;;4.97;2.17;;;17.40;99.90;;;;;;5014358;28;20543;-73
2021/08/09 06:48:13;;;;;;;4.90;2.50;;;17.20;99.90;;;;;;5020845;28;20578;-72
2021/08/09 06:50:42;;;;;;;2.13;1.90;;;17.40;99.90;;;;;;5005860;28;20818;-72
2021/08/09 06:53:09;;;;;;;2.70;2.00;;;17.50;99.90;;;;;;5001333;28;20494;-68
2021/08/09 06:55:37;;;;;;;3.70;2.20;;;17.70;99.90;;;;;;5003888;28;20489;-72
2021/08/09 06:58:04;;;;;;;5.93;2.23;;;17.60;99.90;;;;;;4999203;28;20597;-69
2021/08/09 07:00:31;;;;;;;2.10;1.70;;;17.60;99.90;;;;;;4998943;28;20874;-72
2021/08/09 07:02:58;;;;;;;3.87;1.70;;;17.50;99.90;;;;;;5000665;28;20451;-69
2021/08/09 07:05:25;;;;;;;1.93;1.40;;;17.40;99.90;;;;;;4999136;28;21016;-70
2021/08/09 07:07:53;;;;;;;4.87;1.80;;;17.20;99.90;;;;;;4986814;28;20883;-73
2021/08/09 07:10:20;;;;;;;2.27;1.80;;;17.20;99.90;;;;;;4996657;28;20504;-69
2021/08/09 07:12:48;;;;;;;3.00;1.90;;;17.10;99.90;;;;;;4995846;28;20484;-70
2021/08/09 07:15:15;;;;;;;2.53;1.50;;;17.10;99.90;;;;;;4995680;28;20446;-71
2021/08/09 07:17:42;;;;;;;3.40;2.10;;;17.20;99.90;;;;;;4990097;28;20481;-71
2021/08/09 07:20:13;;;;;;;2.27;1.70;;;17.30;99.90;;;;;;5001278;28;20855;-70
2021/08/09 07:22:42;;;;;;;2.60;1.50;;;17.40;99.90;;;;;;4989729;28;20453;-68
2021/08/09 07:25:12;;;;;;;3.63;1.80;;;17.50;99.90;;;;;;4993544;28;20462;-69
2021/08/09 07:27:39;;;;;;;2.40;2.13;;;17.50;99.90;;;;;;4988552;28;20478;-71
2021/08/09 07:30:08;;;;;;;2.90;2.03;;;17.60;99.90;;;;;;4993623;28;20462;-73
2021/08/09 07:32:35;;;;;;;1.90;1.70;;;17.70;99.90;;;;;;4992201;28;21222;-70
2021/08/09 07:35:02;;;;;;;2.73;2.00;;;17.90;99.90;;;;;;5000301;28;20811;-69
2021/08/09 07:37:28;;;;;;;1.93;1.70;;;17.90;99.90;;;;;;5000628;28;20514;-70
2021/08/09 07:39:55;;;;;;;5.80;1.73;;;17.90;99.90;;;;;;5015500;22;20528;-68
2021/08/09 07:42:24;;;;;;;2.47;1.63;;;18.00;99.90;;;;;;4995127;28;20536;-66
2021/08/09 07:44:51;;;;;;;2.80;2.33;;;18.10;99.90;;;;;;4982237;28;20543;-67
2021/08/09 07:47:18;;;;;;;3.33;2.07;;;18.20;99.90;;;;;;4989348;28;20492;-66
2021/08/09 07:49:45;;;;;;;6.40;2.03;;;18.40;99.90;;;;;;4994809;28;20508;-67
2021/08/09 07:52:12;;;;;;;2.57;1.87;;;18.50;99.90;;;;;;4987419;28;20604;-68
2021/08/09 07:54:39;;;;;;;2.37;1.83;;;18.70;99.90;;;;;;4992993;28;20691;-69
2021/08/09 07:57:06;;;;;;;12.23;2.13;;;18.80;99.90;;;;;;4985752;28;21295;-67
2021/08/09 07:59:35;;;;;;;2.70;2.27;;;19.20;99.90;;;;;;4994336;28;20485;-68
2021/08/09 08:02:03;;;;;;;3.70;1.77;;;19.50;99.90;;;;;;4997867;28;20509;-68
2021/08/09 08:04:31;;;;;;;2.73;1.90;;;19.60;99.90;;;;;;4994028;28;20967;-68
2021/08/09 08:06:58;;;;;;;1.73;1.53;;;19.90;99.90;;;;;;4991702;28;20509;-67
2021/08/09 08:09:26;;;;;;;2.70;1.93;;;20.00;99.90;;;;;;4996958;28;20863;-67
2021/08/09 08:11:52;;;;;;;2.13;1.60;;;20.60;99.90;;;;;;5001375;28;20586;-66
2021/08/09 08:14:19;;;;;;;3.83;1.50;;;21.40;99.90;;;;;;4989934;28;20581;-69
2021/08/09 08:16:51;;;;;;;27.43;3.00;;;22.00;99.90;;;;;;4999183;28;21204;-68
2021/08/09 08:19:18;;;;;;;5.97;1.60;;;21.90;99.90;;;;;;4990988;28;20864;-65
2021/08/09 08:21:45;;;;;;;3.93;1.70;;;21.80;99.90;;;;;;4996553;28;20840;-68
2021/08/09 08:24:12;;;;;;;2.37;1.47;;;21.80;99.90;;;;;;4990723;28;20477;-68
2021/08/09 08:26:39;;;;;;;3.37;1.50;;;21.80;99.90;;;;;;4995621;28;20589;-69
2021/08/09 08:29:06;;;;;;;3.90;1.43;;;22.30;99.90;;;;;;4995484;28;20490;-68
2021/08/09 08:31:33;;;;;;;3.20;1.40;;;23.10;99.90;;;;;;5000504;28;21050;-69
2021/08/09 08:34:02;;;;;;;1.77;1.33;;;23.10;99.90;;;;;;4986762;28;20585;-69
2021/08/09 08:36:29;;;;;;;2.47;1.53;;;23.30;99.90;;;;;;4993094;28;20485;-69
2021/08/09 08:38:57;;;;;;;2.60;1.70;;;23.30;99.90;;;;;;4998223;28;20575;-69
2021/08/09 08:41:24;;;;;;;1.40;1.10;;;23.40;99.90;;;;;;5001252;28;20493;-67
2021/08/09 08:43:51;;;;;;;1.87;1.10;;;23.30;99.90;;;;;;4999298;28;20469;-69
2021/08/09 08:46:19;;;;;;;5.07;1.63;;;23.20;99.90;;;;;;4995113;28;20493;-67
2021/08/09 08:48:47;;;;;;;3.20;1.37;;;23.10;99.90;;;;;;5001238;28;20485;-67
2021/08/09 08:51:16;;;;;;;2.17;1.60;;;22.60;99.90;;;;;;5001641;28;20496;-68
2021/08/09 08:53:45;;;;;;;1.50;1.40;;;22.50;99.90;;;;;;4998820;28;20481;-69
2021/08/09 08:56:12;;;;;;;1.73;1.30;;;22.40;99.90;;;;;;4996989;28;20507;-70
2021/08/09 08:58:39;;;;;;;1.90;1.50;;;22.50;99.90;;;;;;4992180;28;20982;-68
2021/08/09 09:01:06;;;;;;;2.87;1.40;;;22.50;99.90;;;;;;4990736;28;20478;-69
2021/08/09 09:03:39;;;;;;;3.57;1.47;;;22.30;99.90;;;;;;4988342;28;20477;-68
2021/08/09 09:06:07;;;;;;;5.80;1.90;;;21.90;99.90;;;;;;4994054;28;20492;-69
2021/08/09 09:08:42;;;;;;;2.03;1.60;;;22.60;99.90;;;;;;4991098;28;20513;-68
2021/08/09 09:11:11;;;;;;;3.90;1.37;;;23.80;99.90;;;;;;4993553;28;20520;-67
2021/08/09 09:13:53;;;;;;;4.47;1.23;;;24.90;99.90;;;;;;4993522;28;20489;-68
2021/08/09 09:16:20;;;;;;;2.27;1.40;;;25.20;99.90;;;;;;4988711;28;20562;-66
2021/08/09 09:18:49;;;;;;;2.23;1.20;;;25.50;99.90;;;;;;4997633;28;20488;-68
2021/08/09 09:21:28;;;;;;;2.00;1.70;;;25.40;99.90;;;;;;4999487;28;20623;-68
2021/08/09 09:24:07;;;;;;;2.77;1.60;;;25.30;99.90;;;;;;4988318;28;20842;-68
2021/08/09 09:26:35;;;;;;;2.37;1.33;;;25.40;99.90;;;;;;4988695;28;20505;-68
2021/08/09 09:29:07;;;;;;;3.00;1.30;;;25.70;99.90;;;;;;4990367;28;20649;-68
2021/08/09 09:31:34;;;;;;;4.10;1.87;;;25.60;99.90;;;;;;4988707;28;20486;-69
2021/08/09 09:34:04;;;;;;;2.33;1.47;;;26.00;99.90;;;;;;4993145;28;20869;-67
2021/08/09 09:36:47;;;;;;;2.07;1.30;;;26.20;99.90;;;;;;4986956;28;20816;-69
2021/08/09 09:39:32;;;;;;;4.60;1.40;;;26.80;99.90;;;;;;4993782;28;20566;-67
2021/08/09 09:42:02;;;;;;;2.83;2.63;;;26.90;99.90;;;;;;4990548;28;20539;-66
2021/08/09 09:44:30;;;;;;;5.93;1.57;;;27.10;99.90;;;;;;4986347;28;22560;-67
2021/08/09 09:47:19;;;;;;;2.00;1.87;;;27.30;99.90;;;;;;4994603;28;20963;-68
2021/08/09 09:49:47;;;;;;;1.00;0.70;;;27.00;99.90;;;;;;4993787;28;20564;-67
2021/08/09 09:52:29;;;;;;;3.57;1.53;;;27.10;99.90;;;;;;4995164;28;20597;-68
2021/08/09 09:54:59;;;;;;;2.03;1.27;;;27.70;99.90;;;;;;4989913;28;20579;-68
2021/08/09 09:57:27;;;;;;;2.20;1.40;;;26.70;99.90;;;;;;4994798;28;20505;-67
2021/08/09 09:59:56;;;;;;;4.50;2.23;;;26.00;99.90;;;;;;4987836;28;20592;-67
2021/08/09 10:02:23;;;;;;;8.17;1.73;;;24.90;99.90;;;;;;4994500;28;20484;-69
2021/08/09 10:04:51;;;;;;;2.10;1.50;;;24.80;99.90;;;;;;4994328;28;20533;-69
2021/08/09 10:07:19;;;;;;;3.53;1.70;;;24.50;99.90;;;;;;4999173;28;20527;-69
2021/08/09 10:09:50;;;;;;;1.70;1.33;;;24.40;99.90;;;;;;4997552;28;20491;-68
2021/08/09 10:12:24;;;;;;;3.17;1.50;;;24.80;99.90;;;;;;4998671;28;20505;-69
2021/08/09 10:14:53;;;;;;;7.93;1.57;;;24.20;99.90;;;;;;4990408;28;20546;-69
2021/08/09 10:17:21;;;;;;;2.30;1.60;;;24.10;99.90;;;;;;4999574;28;20495;-67
2021/08/09 10:19:49;;;;;;;2.87;1.97;;;24.50;99.90;;;;;;4995678;28;20485;-69
2021/08/09 10:22:19;;;;;;;3.73;1.30;;;24.80;99.90;;;;;;4997370;28;20634;-68
2021/08/09 10:24:48;;;;;;;2.03;1.30;;;24.80;99.90;;;;;;4994942;28;20509;-69
2021/08/09 10:27:15;;;;;;;3.73;1.73;;;25.10;99.90;;;;;;4980844;28;20509;-67
2021/08/09 10:30:15;;;;;;;2.00;1.40;;;24.80;99.90;;;;;;4989514;28;20485;-69
2021/08/09 10:32:47;;;;;;;3.10;1.27;;;24.30;99.90;;;;;;4995028;28;20484;-69
2021/08/09 10:36:04;;;;;;;1.70;1.30;;;23.60;99.90;;;;;;4996981;28;20513;-67
2021/08/09 10:38:43;;;;;;;7.43;1.90;;;23.00;99.90;;;;;;4984112;28;20564;-67
2021/08/09 10:41:52;;;;;;;1.90;1.80;;;22.20;99.90;;;;;;4989786;28;20488;-68
2021/08/09 10:44:28;;;;;;;3.53;2.07;;;21.90;99.90;;;;;;4910671;29;20515;-67
2021/08/09 10:46:59;;;;;;;8.70;3.10;;;21.90;99.90;;;;;;4917108;29;20552;-69
2021/08/09 10:49:57;;;;;;;2.40;1.50;;;22.00;99.90;;;;;;4960989;28;20915;-67
2021/08/09 10:52:41;;;;;;;4.47;1.73;;;22.00;99.90;;;;;;5006634;28;20441;-67
2021/08/09 10:55:45;;;;;;;2.00;1.57;;;22.30;99.90;;;;;;5003133;28;20490;-68
2021/08/09 10:58:46;;;;;;;2.07;1.57;;;22.60;99.90;;;;;;4995787;28;20459;-68
2021/08/09 11:01:13;;;;;;;3.10;1.60;;;23.00;99.90;;;;;;4996995;28;20544;-67
2021/08/09 11:04:14;;;;;;;3.20;2.40;;;23.50;99.90;;;;;;5000202;28;21028;-67
2021/08/09 11:06:51;;;;;;;3.63;1.33;;;24.70;99.90;;;;;;5003779;28;20847;-70
2021/08/09 11:09:54;;;;;;;2.27;1.40;;;25.50;99.90;;;;;;4991945;28;21039;-69
2021/08/09 11:12:23;;;;;;;3.87;1.40;;;26.90;99.90;;;;;;4997754;28;20548;-68
2021/08/09 11:15:15;;;;;;;3.23;1.57;;;26.50;99.90;;;;;;5000504;28;20484;-68
2021/08/09 11:17:59;;;;;;;3.50;1.50;;;25.80;99.90;;;;;;4996408;28;20474;-70
2021/08/09 11:20:30;;;;;;;2.33;1.37;;;26.40;99.90;;;;;;4999866;28;20595;-68
2021/08/09 11:23:03;;;;;;;3.20;2.73;;;26.80;99.90;;;;;;4993669;28;20446;-67
2021/08/09 11:25:32;;;;;;;3.17;1.40;;;26.30;99.90;;;;;;5000473;28;20485;-69
2021/08/09 11:28:01;;;;;;;1.67;1.40;;;26.30;99.90;;;;;;5002005;28;20470;-67
2021/08/09 11:30:36;;;;;;;4.40;1.67;;;26.50;99.90;;;;;;4997094;28;21060;-69
2021/08/09 11:33:04;;;;;;;8.00;1.50;;;26.20;99.90;;;;;;5012296;28;20523;-68
2021/08/09 11:35:31;;;;;;;1.93;1.30;;;25.70;99.90;;;;;;5009724;28;20485;-68
2021/08/09 11:38:01;;;;;;;2.43;1.87;;;25.30;99.90;;;;;;4998109;28;20590;-69
2021/08/09 11:40:39;;;;;;;10.57;2.10;;;24.90;99.90;;;;;;5001662;28;20493;-68
2021/08/09 11:43:06;;;;;;;2.30;1.30;;;24.90;99.90;;;;;;5016222;28;20448;-69
2021/08/09 11:45:33;;;;;;;2.43;1.80;;;25.50;99.90;;;;;;5032945;28;20475;-69
2021/08/09 11:48:00;;;;;;;2.50;1.67;;;25.80;99.90;;;;;;5008475;28;20948;-69
2021/08/09 11:50:35;;;;;;;4.40;1.30;;;25.90;99.90;;;;;;5002956;28;20842;-68
2021/08/09 11:53:04;;;;;;;2.20;1.90;;;25.60;99.90;;;;;;4998689;28;20456;-69
2021/08/09 11:55:31;;;;;;;1.97;1.40;;;25.30;99.90;;;;;;4997623;28;20572;-68
2021/08/09 11:57:58;;;;;;;2.80;1.60;;;25.40;99.90;;;;;;5003355;28;20474;-69
2021/08/09 12:00:40;;;;;;;5.37;1.77;;;26.40;99.90;;;;;;5001782;28;20510;-68
2021/08/09 12:03:12;;;;;;;1.70;1.17;;;26.80;99.90;;;;;;5005290;28;20519;-68
2021/08/09 12:05:39;;;;;;;2.50;1.43;;;26.70;99.90;;;;;;4996826;28;20446;-69
2021/08/09 12:08:08;;;;;;;2.40;1.40;;;27.40;99.90;;;;;;4991333;28;20548;-68
2021/08/09 12:10:36;;;;;;;2.23;1.47;;;28.70;99.90;;;;;;5006655;28;20496;-66
2021/08/09 12:13:04;;;;;;;2.53;2.20;;;28.70;97.40;;;;;;4994038;28;20458;-66
2021/08/09 12:15:31;;;;;;;3.83;1.67;;;27.80;97.90;;;;;;4999107;28;20513;-69
2021/08/09 12:18:08;;;;;;;3.83;1.50;;;26.90;98.70;;;;;;4994452;28;20474;-68
2021/08/09 12:20:36;;;;;;;1.53;1.20;;;26.50;99.50;;;;;;5003482;28;20493;-67
2021/08/09 12:23:04;;;;;;;1.43;1.23;;;26.10;99.90;;;;;;5001675;28;20920;-68
2021/08/09 12:25:41;;;;;;;4.73;1.43;;;25.40;99.90;;;;;;4993285;28;20462;-68
2021/08/09 12:28:08;;;;;;;3.80;1.47;;;25.00;99.90;;;;;;4996498;28;20459;-67
2021/08/09 12:30:51;;;;;;;4.33;1.60;;;25.00;99.90;;;;;;4995247;28;20528;-67
2021/08/09 12:33:18;;;;;;;1.90;1.53;;;24.90;99.90;;;;;;4995158;28;20485;-67
2021/08/09 12:35:45;;;;;;;1.63;1.20;;;25.10;99.90;;;;;;4996804;28;20504;-67
2021/08/09 12:38:14;;;;;;;1.43;1.23;;;26.00;99.90;;;;;;4992027;28;20470;-68
2021/08/09 12:40:45;;;;;;;1.80;1.10;;;27.10;99.90;;;;;;4989608;28;20489;-69
2021/08/09 12:43:13;;;;;;;2.63;1.57;;;27.30;99.30;;;;;;4996898;28;20453;-68
2021/08/09 12:45:42;;;;;;;5.00;1.20;;;27.20;98.40;;;;;;4991442;28;20508;-68
2021/08/09 12:48:11;;;;;;;2.23;1.30;;;26.20;99.70;;;;;;5007199;28;20480;-67
2021/08/09 12:50:39;;;;;;;1.40;1.10;;;25.30;99.90;;;;;;5007879;28;20519;-68
2021/08/09 12:53:06;;;;;;;1.87;1.13;;;24.60;99.90;;;;;;5005535;28;20496;-69
2021/08/09 12:55:33;;;;;;;3.53;1.17;;;24.30;99.90;;;;;;4998279;28;20547;-67
2021/08/09 12:58:02;;;;;;;2.43;1.30;;;24.00;99.90;;;;;;4999608;28;20869;-67
2021/08/09 13:00:29;;;;;;;1.40;1.00;;;23.80;99.90;;;;;;5007971;28;20968;-67